sensor_id;sensor_type;location;lat;lon;timestamp;pressure;altitude;pressure_sealevel;temperature;humidity
69780;BME280;57052;55.602;38.096;2022-08-21T00:01:55;101184.16;;;19.83;37.76
69780;BME280;57052;55.602;38.096;2022-08-21T00:04:21;101199.94;;;19.91;37.92
69780;BME280;57052;55.602;38.096;2022-08-21T00:06:48;101199.94;;;19.91;37.76
69780;BME280;57052;55.602;38.096;2022-08-21T00:09:13;101195.97;;;19.83;37.87
69780;BME280;57052;55.602;38.096;2022-08-21T00:11:39;101201.66;;;19.87;37.95
69780;BME280;57052;55.602;38.096;2022-08-21T00:14:06;101198.41;;;19.85;38.00
69780;BME280;57052;55.602;38.096;2022-08-21T00:16:32;101198.19;;;19.81;38.11
69780;BME280;57052;55.602;38.096;2022-08-21T00:18:58;101185.50;;;19.72;38.18
69780;BME280;57052;55.602;38.096;2022-08-21T00:21:24;101187.13;;;19.73;38.52
69780;BME280;57052;55.602;38.096;2022-08-21T00:23:51;101194.44;;;19.77;38.27
69780;BME280;57052;55.602;38.096;2022-08-21T00:26:16;101200.25;;;19.76;38.20
69780;BME280;57052;55.602;38.096;2022-08-21T00:28:42;101194.25;;;19.74;38.29
69780;BME280;57052;55.602;38.096;2022-08-21T00:31:09;101208.28;;;19.72;38.43
69780;BME280;57052;55.602;38.096;2022-08-21T00:33:34;101200.38;;;19.71;38.49
69780;BME280;57052;55.602;38.096;2022-08-21T00:36:00;101197.41;;;19.67;38.40
69780;BME280;57052;55.602;38.096;2022-08-21T00:38:26;101178.59;;;19.61;38.34
69780;BME280;57052;55.602;38.096;2022-08-21T00:40:55;101193.66;;;19.63;38.39
69780;BME280;57052;55.602;38.096;2022-08-21T00:43:25;101187.94;;;19.60;38.63
69780;BME280;57052;55.602;38.096;2022-08-21T00:45:53;101184.19;;;19.56;38.54
69780;BME280;57052;55.602;38.096;2022-08-21T00:48:20;101193.94;;;19.62;38.51
69780;BME280;57052;55.602;38.096;2022-08-21T00:50:50;101192.34;;;19.61;38.57
69780;BME280;57052;55.602;38.096;2022-08-21T00:53:18;101194.59;;;19.59;38.68
69780;BME280;57052;55.602;38.096;2022-08-21T00:55:45;101194.59;;;19.59;38.50
69780;BME280;57052;55.602;38.096;2022-08-21T00:58:12;101189.38;;;19.57;38.52
69780;BME280;57052;55.602;38.096;2022-08-21T01:00:40;101199.25;;;19.58;38.74
69780;BME280;57052;55.602;38.096;2022-08-21T01:03:10;101196.00;;;19.56;38.96
69780;BME280;57052;55.602;38.096;2022-08-21T01:05:37;101202.28;;;19.57;38.47
69780;BME280;57052;55.602;38.096;2022-08-21T01:08:04;101204.25;;;19.56;38.70
69780;BME280;57052;55.602;38.096;2022-08-21T01:10:31;101192.66;;;19.46;38.72
69780;BME280;57052;55.602;38.096;2022-08-21T01:12:57;101197.72;;;19.52;38.66
69780;BME280;57052;55.602;38.096;2022-08-21T01:15:27;101209.75;;;19.56;38.84
69780;BME280;57052;55.602;38.096;2022-08-21T01:17:55;101193.88;;;19.53;38.71
69780;BME280;57052;55.602;38.096;2022-08-21T01:20:21;101201.50;;;19.56;38.55
69780;BME280;57052;55.602;38.096;2022-08-21T01:22:47;101201.78;;;19.55;38.61
69780;BME280;57052;55.602;38.096;2022-08-21T01:25:15;101200.19;;;19.54;38.53
69780;BME280;57052;55.602;38.096;2022-08-21T01:27:41;101194.69;;;19.54;38.59
69780;BME280;57052;55.602;38.096;2022-08-21T01:30:12;101191.41;;;19.52;38.64
69780;BME280;57052;55.602;38.096;2022-08-21T01:32:38;101185.31;;;19.41;38.59
69780;BME280;57052;55.602;38.096;2022-08-21T01:35:06;101182.88;;;19.40;38.66
69780;BME280;57052;55.602;38.096;2022-08-21T01:37:31;101192.03;;;19.49;38.97
69780;BME280;57052;55.602;38.096;2022-08-21T01:39:57;101188.34;;;19.40;38.98
69780;BME280;57052;55.602;38.096;2022-08-21T01:42:23;101191.59;;;19.42;39.03
69780;BME280;57052;55.602;38.096;2022-08-21T01:44:49;101202.00;;;19.45;39.03
69780;BME280;57052;55.602;38.096;2022-08-21T01:47:15;101194.06;;;19.43;38.66
69780;BME280;57052;55.602;38.096;2022-08-21T01:49:42;101197.63;;;19.44;38.95
69780;BME280;57052;55.602;38.096;2022-08-21T01:52:08;101202.59;;;19.42;38.71
69780;BME280;57052;55.602;38.096;2022-08-21T01:54:34;101202.91;;;19.40;39.03
69780;BME280;57052;55.602;38.096;2022-08-21T01:57:01;101192.59;;;19.32;38.97
69780;BME280;57052;55.602;38.096;2022-08-21T01:59:27;101195.06;;;19.34;38.89
69780;BME280;57052;55.602;38.096;2022-08-21T02:01:53;101190.16;;;19.31;39.27
69780;BME280;57052;55.602;38.096;2022-08-21T02:04:22;101206.81;;;19.34;39.05
69780;BME280;57052;55.602;38.096;2022-08-21T02:06:48;101205.22;;;19.33;39.21
69780;BME280;57052;55.602;38.096;2022-08-21T02:09:14;101197.19;;;19.23;38.83
69780;BME280;57052;55.602;38.096;2022-08-21T02:11:41;101199.50;;;19.30;38.97
69780;BME280;57052;55.602;38.096;2022-08-21T02:14:08;101214.06;;;19.30;39.05
69780;BME280;57052;55.602;38.096;2022-08-21T02:16:35;101202.25;;;19.30;39.03
69780;BME280;57052;55.602;38.096;2022-08-21T02:19:01;101206.41;;;19.27;39.11
69780;BME280;57052;55.602;38.096;2022-08-21T02:21:27;101211.41;;;19.25;39.05
69780;BME280;57052;55.602;38.096;2022-08-21T02:23:52;101205.19;;;19.19;38.90
69780;BME280;57052;55.602;38.096;2022-08-21T02:26:18;101218.31;;;19.23;39.18
69780;BME280;57052;55.602;38.096;2022-08-21T02:28:43;101203.03;;;19.16;39.10
69780;BME280;57052;55.602;38.096;2022-08-21T02:31:09;101170.88;;;18.90;39.28
69780;BME280;57052;55.602;38.096;2022-08-21T02:33:35;101214.84;;;19.17;39.44
69780;BME280;57052;55.602;38.096;2022-08-21T02:36:01;101219.50;;;19.16;39.40
69780;BME280;57052;55.602;38.096;2022-08-21T02:38:30;101219.81;;;19.15;39.52
69780;BME280;57052;55.602;38.096;2022-08-21T02:40:56;101219.00;;;19.14;39.34
69780;BME280;57052;55.602;38.096;2022-08-21T02:43:25;101222.88;;;19.13;39.59
69780;BME280;57052;55.602;38.096;2022-08-21T02:45:51;101213.63;;;19.09;39.51
69780;BME280;57052;55.602;38.096;2022-08-21T02:48:21;101204.06;;;19.07;39.48
69780;BME280;57052;55.602;38.096;2022-08-21T02:50:51;101222.97;;;19.08;39.81
69780;BME280;57052;55.602;38.096;2022-08-21T02:53:17;101204.75;;;18.99;39.75
69780;BME280;57052;55.602;38.096;2022-08-21T02:55:44;101212.69;;;19.00;39.85
69780;BME280;57052;55.602;38.096;2022-08-21T02:58:12;101202.81;;;18.99;39.64
69780;BME280;57052;55.602;38.096;2022-08-21T03:00:39;101213.19;;;19.02;39.79
69780;BME280;57052;55.602;38.096;2022-08-21T03:03:05;101207.47;;;18.99;39.86
69780;BME280;57052;55.602;38.096;2022-08-21T03:05:31;101218.19;;;19.00;39.87
69780;BME280;57052;55.602;38.096;2022-08-21T03:07:58;101182.56;;;18.82;39.75
69780;BME280;57052;55.602;38.096;2022-08-21T03:10:25;101227.34;;;19.09;39.54
69780;BME280;57052;55.602;38.096;2022-08-21T03:12:50;101203.31;;;19.01;39.72
69780;BME280;57052;55.602;38.096;2022-08-21T03:15:18;101228.16;;;19.10;39.96
69780;BME280;57052;55.602;38.096;2022-08-21T03:17:45;101209.75;;;19.10;39.74
69780;BME280;57052;55.602;38.096;2022-08-21T03:20:14;101213.31;;;19.11;39.97
69780;BME280;57052;55.602;38.096;2022-08-21T03:22:40;101213.84;;;19.13;39.73
69780;BME280;57052;55.602;38.096;2022-08-21T03:25:07;101221.75;;;19.14;39.72
69780;BME280;57052;55.602;38.096;2022-08-21T03:27:34;101226.97;;;19.16;40.03
69780;BME280;57052;55.602;38.096;2022-08-21T03:30:01;101208.63;;;19.11;39.97
69780;BME280;57052;55.602;38.096;2022-08-21T03:32:27;101204.19;;;19.15;39.72
69780;BME280;57052;55.602;38.096;2022-08-21T03:34:52;101222.16;;;19.21;39.67
69780;BME280;57052;55.602;38.096;2022-08-21T03:37:18;101205.88;;;19.11;39.76
69780;BME280;57052;55.602;38.096;2022-08-21T03:39:44;101227.88;;;19.25;39.83
69780;BME280;57052;55.602;38.096;2022-08-21T03:42:11;101222.06;;;19.27;39.80
69780;BME280;57052;55.602;38.096;2022-08-21T03:44:37;101230.84;;;19.29;39.91
69780;BME280;57052;55.602;38.096;2022-08-21T03:47:05;101224.03;;;19.26;40.08
69780;BME280;57052;55.602;38.096;2022-08-21T03:49:31;101237.34;;;19.33;39.75
69780;BME280;57052;55.602;38.096;2022-08-21T03:51:57;101236.75;;;19.36;39.87
69780;BME280;57052;55.602;38.096;2022-08-21T03:54:22;101226.31;;;19.38;39.65
69780;BME280;57052;55.602;38.096;2022-08-21T03:56:48;101233.94;;;19.41;39.77
69780;BME280;57052;55.602;38.096;2022-08-21T03:59:14;101228.72;;;19.39;39.91
69780;BME280;57052;55.602;38.096;2022-08-21T04:01:51;101230.88;;;19.42;40.13
69780;BME280;57052;55.602;38.096;2022-08-21T04:04:16;101232.09;;;19.50;39.90
69780;BME280;57052;55.602;38.096;2022-08-21T04:06:42;101228.75;;;19.53;39.88
69780;BME280;57052;55.602;38.096;2022-08-21T04:09:08;101222.66;;;19.56;39.72
69780;BME280;57052;55.602;38.096;2022-08-21T04:11:33;101227.22;;;19.60;39.78
69780;BME280;57052;55.602;38.096;2022-08-21T04:13:59;101225.19;;;19.66;39.68
69780;BME280;57052;55.602;38.096;2022-08-21T04:16:24;101227.34;;;19.69;39.73
69780;BME280;57052;55.602;38.096;2022-08-21T04:18:51;101220.09;;;19.73;39.69
69780;BME280;57052;55.602;38.096;2022-08-21T04:21:16;101217.84;;;19.75;39.55
69780;BME280;57052;55.602;38.096;2022-08-21T04:23:42;101220.09;;;19.73;39.48
69780;BME280;57052;55.602;38.096;2022-08-21T04:26:07;101218.06;;;19.78;39.11
69780;BME280;57052;55.602;38.096;2022-08-21T04:28:33;101230.78;;;19.88;39.24
69780;BME280;57052;55.602;38.096;2022-08-21T04:30:58;101219.47;;;19.90;39.11
69780;BME280;57052;55.602;38.096;2022-08-21T04:33:24;101234.72;;;19.96;38.78
69780;BME280;57052;55.602;38.096;2022-08-21T04:35:50;101224.75;;;20.00;38.69
69780;BME280;57052;55.602;38.096;2022-08-21T04:38:16;101235.94;;;20.03;38.71
69780;BME280;57052;55.602;38.096;2022-08-21T04:40:42;101218.75;;;19.98;38.66
69780;BME280;57052;55.602;38.096;2022-08-21T04:43:11;101215.88;;;20.03;38.54
69780;BME280;57052;55.602;38.096;2022-08-21T04:45:42;101222.59;;;20.10;38.56
69780;BME280;57052;55.602;38.096;2022-08-21T04:48:11;101239.97;;;20.19;38.38
69780;BME280;57052;55.602;38.096;2022-08-21T04:53:13;101230.03;;;20.23;38.18
69780;BME280;57052;55.602;38.096;2022-08-21T04:55:42;101232.16;;;20.26;38.08
69780;BME280;57052;55.602;38.096;2022-08-21T04:58:10;101222.03;;;20.22;37.65
69780;BME280;57052;55.602;38.096;2022-08-21T05:00:37;101235.59;;;20.32;37.74
69780;BME280;57052;55.602;38.096;2022-08-21T05:03:04;101233.03;;;20.35;37.77
69780;BME280;57052;55.602;38.096;2022-08-21T05:05:32;101236.28;;;20.37;37.91
69780;BME280;57052;55.602;38.096;2022-08-21T05:07:59;101225.28;;;20.37;37.52
69780;BME280;57052;55.602;38.096;2022-08-21T05:10:26;101224.19;;;20.38;37.48
69780;BME280;57052;55.602;38.096;2022-08-21T05:12:52;101237.69;;;20.49;37.57
69780;BME280;57052;55.602;38.096;2022-08-21T05:15:18;101223.13;;;20.48;37.38
69780;BME280;57052;55.602;38.096;2022-08-21T05:17:44;101232.06;;;20.54;37.17
69780;BME280;57052;55.602;38.096;2022-08-21T05:20:11;101222.06;;;20.58;37.21
69780;BME280;57052;55.602;38.096;2022-08-21T05:22:38;101219.50;;;20.61;37.08
69780;BME280;57052;55.602;38.096;2022-08-21T05:25:05;101214.19;;;20.65;37.12
69780;BME280;57052;55.602;38.096;2022-08-21T05:27:31;101223.63;;;20.72;37.02
69780;BME280;57052;55.602;38.096;2022-08-21T05:29:57;101209.38;;;20.70;37.17
69780;BME280;57052;55.602;38.096;2022-08-21T05:32:23;101224.00;;;20.79;36.90
69780;BME280;57052;55.602;38.096;2022-08-21T05:34:49;101223.84;;;20.84;36.77
69780;BME280;57052;55.602;38.096;2022-08-21T05:37:15;101204.09;;;20.82;36.47
69780;BME280;57052;55.602;38.096;2022-08-21T05:39:41;101218.75;;;20.91;36.33
69780;BME280;57052;55.602;38.096;2022-08-21T05:42:07;101222.28;;;20.92;36.48
69780;BME280;57052;55.602;38.096;2022-08-21T05:44:33;101222.81;;;20.94;36.40
69780;BME280;57052;55.602;38.096;2022-08-21T05:47:06;101217.31;;;20.94;35.97
69780;BME280;57052;55.602;38.096;2022-08-21T05:49:33;101214.44;;;20.99;36.04
69780;BME280;57052;55.602;38.096;2022-08-21T05:51:59;101212.78;;;20.98;35.99
69780;BME280;57052;55.602;38.096;2022-08-21T05:54:24;101205.34;;;20.98;35.83
69780;BME280;57052;55.602;38.096;2022-08-21T05:56:50;101206.22;;;21.07;35.42
69780;BME280;57052;55.602;38.096;2022-08-21T05:59:17;101210.28;;;21.10;35.92
69780;BME280;57052;55.602;38.096;2022-08-21T06:01:43;101217.97;;;21.22;35.67
69780;BME280;57052;55.602;38.096;2022-08-21T06:04:11;101224.47;;;21.26;35.78
69780;BME280;57052;55.602;38.096;2022-08-21T06:06:37;101209.25;;;21.28;35.57
69780;BME280;57052;55.602;38.096;2022-08-21T06:09:04;101216.13;;;21.39;35.60
69780;BME280;57052;55.602;38.096;2022-08-21T06:11:30;101215.97;;;21.44;35.62
69780;BME280;57052;55.602;38.096;2022-08-21T06:13:56;101215.50;;;21.51;35.38
69780;BME280;57052;55.602;38.096;2022-08-21T06:16:22;101199.47;;;21.53;35.35
69780;BME280;57052;55.602;38.096;2022-08-21T06:18:48;101202.41;;;21.65;35.33
69780;BME280;57052;55.602;38.096;2022-08-21T06:21:13;101207.34;;;21.77;35.27
69780;BME280;57052;55.602;38.096;2022-08-21T06:23:40;101204.09;;;21.83;35.01
69780;BME280;57052;55.602;38.096;2022-08-21T06:26:07;101200.09;;;21.89;34.54
69780;BME280;57052;55.602;38.096;2022-08-21T06:28:34;101188.91;;;21.94;34.76
69780;BME280;57052;55.602;38.096;2022-08-21T06:31:00;101186.78;;;22.00;34.79
69780;BME280;57052;55.602;38.096;2022-08-21T06:33:26;101198.31;;;22.10;34.27
69780;BME280;57052;55.602;38.096;2022-08-21T06:35:51;101198.16;;;22.15;34.04
69780;BME280;57052;55.602;38.096;2022-08-21T06:38:17;101181.63;;;22.15;34.22
69780;BME280;57052;55.602;38.096;2022-08-21T06:40:43;101181.47;;;22.20;34.67
69780;BME280;57052;55.602;38.096;2022-08-21T06:43:11;101197.53;;;22.35;33.92
69780;BME280;57052;55.602;38.096;2022-08-21T06:45:37;101193.16;;;22.43;34.13
69780;BME280;57052;55.602;38.096;2022-08-21T06:48:03;101199.81;;;22.51;33.69
69780;BME280;57052;55.602;38.096;2022-08-21T06:50:29;101200.44;;;22.56;33.31
69780;BME280;57052;55.602;38.096;2022-08-21T06:53:00;101196.72;;;22.61;32.54
69780;BME280;57052;55.602;38.096;2022-08-21T06:55:25;101197.06;;;22.68;32.65
69780;BME280;57052;55.602;38.096;2022-08-21T06:57:51;101184.88;;;22.69;32.58
69780;BME280;57052;55.602;38.096;2022-08-21T07:00:17;101190.72;;;22.76;32.11
69780;BME280;57052;55.602;38.096;2022-08-21T07:02:42;101195.88;;;22.86;31.88
69780;BME280;57052;55.602;38.096;2022-08-21T07:05:08;101189.06;;;22.92;31.84
69780;BME280;57052;55.602;38.096;2022-08-21T07:07:33;101184.66;;;23.00;32.10
69780;BME280;57052;55.602;38.096;2022-08-21T07:09:59;101183.78;;;23.08;31.49
69780;BME280;57052;55.602;38.096;2022-08-21T07:12:24;101184.91;;;23.15;31.70
69780;BME280;57052;55.602;38.096;2022-08-21T07:14:51;101188.78;;;23.23;31.24
69780;BME280;57052;55.602;38.096;2022-08-21T07:17:17;101172.50;;;23.30;31.21
69780;BME280;57052;55.602;38.096;2022-08-21T07:19:42;101170.88;;;23.37;31.42
69780;BME280;57052;55.602;38.096;2022-08-21T07:22:08;101166.44;;;23.45;31.08
69780;BME280;57052;55.602;38.096;2022-08-21T07:24:34;101170.81;;;23.54;31.09
69780;BME280;57052;55.602;38.096;2022-08-21T07:26:59;101163.47;;;23.58;30.86
69780;BME280;57052;55.602;38.096;2022-08-21T07:29:25;101153.03;;;23.64;30.58
69780;BME280;57052;55.602;38.096;2022-08-21T07:31:51;101169.84;;;23.80;30.55
69780;BME280;57052;55.602;38.096;2022-08-21T07:34:17;101157.44;;;23.86;30.35
69780;BME280;57052;55.602;38.096;2022-08-21T07:36:42;101161.06;;;23.98;29.78
69780;BME280;57052;55.602;38.096;2022-08-21T07:39:08;101165.94;;;24.01;29.89
69780;BME280;57052;55.602;38.096;2022-08-21T07:41:33;101151.28;;;24.09;29.58
69780;BME280;57052;55.602;38.096;2022-08-21T07:43:59;101162.06;;;24.23;28.48
69780;BME280;57052;55.602;38.096;2022-08-21T07:46:25;101146.63;;;24.22;28.37
69780;BME280;57052;55.602;38.096;2022-08-21T07:48:52;101159.00;;;24.37;27.86
69780;BME280;57052;55.602;38.096;2022-08-21T07:51:19;101151.78;;;24.44;28.27
69780;BME280;57052;55.602;38.096;2022-08-21T07:53:50;101145.06;;;24.45;27.41
69780;BME280;57052;55.602;38.096;2022-08-21T07:56:16;101151.47;;;24.58;27.86
69780;BME280;57052;55.602;38.096;2022-08-21T07:58:42;101112.66;;;24.46;27.98
69780;BME280;57052;55.602;38.096;2022-08-21T08:01:08;101143.47;;;24.77;27.52
69780;BME280;57052;55.602;38.096;2022-08-21T08:03:34;101137.28;;;24.80;27.20
69780;BME280;57052;55.602;38.096;2022-08-21T08:06:00;101141.66;;;24.93;26.89
69780;BME280;57052;55.602;38.096;2022-08-21T08:08:26;101136.25;;;24.97;26.32
69780;BME280;57052;55.602;38.096;2022-08-21T08:10:53;101130.28;;;25.07;26.19
69780;BME280;57052;55.602;38.096;2022-08-21T08:13:19;101140.44;;;25.15;26.57
69780;BME280;57052;55.602;38.096;2022-08-21T08:15:45;101127.88;;;25.17;26.37
69780;BME280;57052;55.602;38.096;2022-08-21T08:18:10;101126.34;;;25.32;26.07
69780;BME280;57052;55.602;38.096;2022-08-21T08:20:36;101126.59;;;25.39;26.04
69780;BME280;57052;55.602;38.096;2022-08-21T08:23:02;101118.50;;;25.46;25.82
69780;BME280;57052;55.602;38.096;2022-08-21T08:25:27;101120.81;;;25.56;25.97
69780;BME280;57052;55.602;38.096;2022-08-21T08:27:53;101120.25;;;25.63;25.49
69780;BME280;57052;55.602;38.096;2022-08-21T08:30:20;101107.75;;;25.69;25.26
69780;BME280;57052;55.602;38.096;2022-08-21T08:32:47;101092.59;;;25.66;25.39
69780;BME280;57052;55.602;38.096;2022-08-21T08:35:13;101100.91;;;25.78;25.10
69780;BME280;57052;55.602;38.096;2022-08-21T08:37:40;101096.28;;;25.82;24.73
69780;BME280;57052;55.602;38.096;2022-08-21T08:40:10;101099.97;;;25.86;24.66
69780;BME280;57052;55.602;38.096;2022-08-21T08:42:36;101097.50;;;25.97;25.18
69780;BME280;57052;55.602;38.096;2022-08-21T08:45:13;101094.84;;;26.13;23.94
69780;BME280;57052;55.602;38.096;2022-08-21T08:47:45;101094.66;;;26.21;23.16
69780;BME280;57052;55.602;38.096;2022-08-21T08:50:20;101090.69;;;26.34;22.41
69780;BME280;57052;55.602;38.096;2022-08-21T08:55:20;101075.56;;;26.47;21.95
69780;BME280;57052;55.602;38.096;2022-08-21T08:57:48;101072.72;;;26.59;23.78
69780;BME280;57052;55.602;38.096;2022-08-21T09:00:18;101091.84;;;26.77;23.68
69780;BME280;57052;55.602;38.096;2022-08-21T09:02:45;101087.38;;;26.88;23.64
69780;BME280;57052;55.602;38.096;2022-08-21T09:05:23;101086.84;;;26.98;21.90
69780;BME280;57052;55.602;38.096;2022-08-21T09:08:45;101087.91;;;27.09;22.57
69780;BME280;57052;55.602;38.096;2022-08-21T09:11:01;101090.50;;;27.17;22.57
69780;BME280;57052;55.602;38.096;2022-08-21T09:16:35;101092.00;;;27.30;22.58
69780;BME280;57052;55.602;38.096;2022-08-21T09:25:02;101092.81;;;27.47;20.84
69780;BME280;57052;55.602;38.096;2022-08-21T09:27:33;101093.41;;;27.56;21.93
69780;BME280;57052;55.602;38.096;2022-08-21T09:29:59;101076.38;;;27.57;22.36
69780;BME280;57052;55.602;38.096;2022-08-21T09:32:30;101087.75;;;27.68;20.92
69780;BME280;57052;55.602;38.096;2022-08-21T09:37:31;101083.00;;;27.87;21.28
69780;BME280;57052;55.602;38.096;2022-08-21T09:39:58;101085.53;;;27.96;21.44
69780;BME280;57052;55.602;38.096;2022-08-21T09:42:28;101087.28;;;28.01;21.18
69780;BME280;57052;55.602;38.096;2022-08-21T09:45:30;101084.22;;;28.06;20.82
69780;BME280;57052;55.602;38.096;2022-08-21T09:47:56;101092.03;;;28.19;21.05
69780;BME280;57052;55.602;38.096;2022-08-21T09:50:25;101081.03;;;28.26;21.39
69780;BME280;57052;55.602;38.096;2022-08-21T09:52:58;101094.31;;;28.33;20.48
69780;BME280;57052;55.602;38.096;2022-08-21T09:55:34;101093.63;;;28.39;20.45
69780;BME280;57052;55.602;38.096;2022-08-21T09:58:30;101084.53;;;28.42;19.56
69780;BME280;57052;55.602;38.096;2022-08-21T10:00:59;101089.81;;;28.47;21.10
69780;BME280;57052;55.602;38.096;2022-08-21T10:03:25;101082.19;;;28.44;21.29
69780;BME280;57052;55.602;38.096;2022-08-21T10:05:52;101099.75;;;28.48;21.26
69780;BME280;57052;55.602;38.096;2022-08-21T10:08:20;101086.88;;;28.40;20.40
69780;BME280;57052;55.602;38.096;2022-08-21T10:10:51;101100.56;;;28.49;20.13
69780;BME280;57052;55.602;38.096;2022-08-21T10:16:24;101073.25;;;28.35;19.14
69780;BME280;57052;55.602;38.096;2022-08-21T10:24:39;101067.09;;;28.26;19.76
69780;BME280;57052;55.602;38.096;2022-08-21T10:30:07;101078.75;;;28.32;20.43
69780;BME280;57052;55.602;38.096;2022-08-21T10:32:57;101074.81;;;28.33;20.06
69780;BME280;57052;55.602;38.096;2022-08-21T10:35:29;101070.47;;;28.35;20.92
69780;BME280;57052;55.602;38.096;2022-08-21T10:40:50;101063.66;;;28.33;20.42
69780;BME280;57052;55.602;38.096;2022-08-21T10:48:58;101056.22;;;28.18;19.42
69780;BME280;57052;55.602;38.096;2022-08-21T10:51:38;101059.44;;;28.20;19.53
69780;BME280;57052;55.602;38.096;2022-08-21T10:54:15;101066.16;;;28.19;19.45
69780;BME280;57052;55.602;38.096;2022-08-21T10:56:46;101054.88;;;28.12;20.34
69780;BME280;57052;55.602;38.096;2022-08-21T11:09:49;101050.00;;;28.05;20.42
69780;BME280;57052;55.602;38.096;2022-08-21T11:12:43;101056.66;;;28.01;19.66
69780;BME280;57052;55.602;38.096;2022-08-21T11:15:24;101050.91;;;27.93;20.06
69780;BME280;57052;55.602;38.096;2022-08-21T11:18:02;101046.00;;;27.87;20.33
69780;BME280;57052;55.602;38.096;2022-08-21T11:24:02;101044.81;;;27.69;19.93
69780;BME280;57052;55.602;38.096;2022-08-21T11:26:41;101047.97;;;27.67;20.60
69780;BME280;57052;55.602;38.096;2022-08-21T11:29:23;101051.09;;;27.66;20.62
69780;BME280;57052;55.602;38.096;2022-08-21T11:40:04;101055.66;;;27.55;20.44
69780;BME280;57052;55.602;38.096;2022-08-21T11:48:10;101046.63;;;27.42;20.62
69780;BME280;57052;55.602;38.096;2022-08-21T11:50:39;101057.03;;;27.45;21.23
69780;BME280;57052;55.602;38.096;2022-08-21T11:53:35;101047.34;;;27.39;21.37
69780;BME280;57052;55.602;38.096;2022-08-21T11:58:52;101038.19;;;27.39;21.46
69780;BME280;57052;55.602;38.096;2022-08-21T12:01:23;101039.00;;;27.39;21.69
69780;BME280;57052;55.602;38.096;2022-08-21T12:04:10;101052.09;;;27.39;21.07
69780;BME280;57052;55.602;38.096;2022-08-21T12:06:41;101046.25;;;27.44;22.29
69780;BME280;57052;55.602;38.096;2022-08-21T12:09:31;101035.22;;;27.31;21.51
69780;BME280;57052;55.602;38.096;2022-08-21T12:14:44;101036.66;;;27.41;21.17
69780;BME280;57052;55.602;38.096;2022-08-21T12:17:21;101038.28;;;27.42;21.96
69780;BME280;57052;55.602;38.096;2022-08-21T12:19:58;101034.69;;;27.42;21.34
69780;BME280;57052;55.602;38.096;2022-08-21T12:22:40;101035.06;;;27.40;21.67
69780;BME280;57052;55.602;38.096;2022-08-21T12:25:13;101033.16;;;27.44;21.52
69780;BME280;57052;55.602;38.096;2022-08-21T12:27:50;101030.75;;;27.43;21.55
69780;BME280;57052;55.602;38.096;2022-08-21T12:35:27;101023.75;;;27.68;21.54
69780;BME280;57052;55.602;38.096;2022-08-21T12:38:01;101027.59;;;27.63;22.04
69780;BME280;57052;55.602;38.096;2022-08-21T12:40:32;101026.00;;;27.81;22.06
69780;BME280;57052;55.602;38.096;2022-08-21T12:43:03;101016.56;;;27.86;21.93
69780;BME280;57052;55.602;38.096;2022-08-21T12:45:33;101013.84;;;27.89;22.26
69780;BME280;57052;55.602;38.096;2022-08-21T12:48:06;101019.22;;;27.98;21.79
69780;BME280;57052;55.602;38.096;2022-08-21T12:50:38;101020.91;;;28.03;22.23
69780;BME280;57052;55.602;38.096;2022-08-21T12:53:10;101026.91;;;28.05;21.52
69780;BME280;57052;55.602;38.096;2022-08-21T12:55:41;101010.94;;;28.02;21.61
69780;BME280;57052;55.602;38.096;2022-08-21T12:58:17;101024.50;;;28.03;21.75
69780;BME280;57052;55.602;38.096;2022-08-21T13:00:49;101019.63;;;28.00;21.55
69780;BME280;57052;55.602;38.096;2022-08-21T13:03:16;101032.91;;;28.07;22.02
69780;BME280;57052;55.602;38.096;2022-08-21T13:05:42;101022.97;;;28.06;21.67
69780;BME280;57052;55.602;38.096;2022-08-21T13:08:10;101017.69;;;28.01;21.88
69780;BME280;57052;55.602;38.096;2022-08-21T13:10:37;101017.69;;;28.01;22.37
69780;BME280;57052;55.602;38.096;2022-08-21T13:13:09;101016.94;;;28.04;21.93
69780;BME280;57052;55.602;38.096;2022-08-21T13:15:39;101025.00;;;28.09;22.39
69780;BME280;57052;55.602;38.096;2022-08-21T13:18:06;101022.19;;;28.09;21.90
69780;BME280;57052;55.602;38.096;2022-08-21T13:20:35;101023.81;;;28.10;22.41
69780;BME280;57052;55.602;38.096;2022-08-21T13:23:06;101027.44;;;28.10;22.28
69780;BME280;57052;55.602;38.096;2022-08-21T13:25:35;101017.09;;;28.11;21.91
69780;BME280;57052;55.602;38.096;2022-08-21T13:28:10;101017.44;;;28.09;21.67
69780;BME280;57052;55.602;38.096;2022-08-21T13:30:54;101017.41;;;28.06;21.99
69780;BME280;57052;55.602;38.096;2022-08-21T13:33:25;101011.84;;;28.06;22.15
69780;BME280;57052;55.602;38.096;2022-08-21T13:38:36;101019.38;;;28.05;21.35
69780;BME280;57052;55.602;38.096;2022-08-21T13:41:16;101019.28;;;28.02;22.15
69780;BME280;57052;55.602;38.096;2022-08-21T13:43:46;101009.66;;;27.99;21.75
69780;BME280;57052;55.602;38.096;2022-08-21T13:46:14;101011.63;;;27.98;21.63
69780;BME280;57052;55.602;38.096;2022-08-21T13:48:41;101006.44;;;27.97;22.17
69780;BME280;57052;55.602;38.096;2022-08-21T13:51:07;101005.63;;;27.96;22.51
69780;BME280;57052;55.602;38.096;2022-08-21T13:53:36;101004.03;;;27.95;22.59
69780;BME280;57052;55.602;38.096;2022-08-21T13:56:03;100975.63;;;27.86;22.20
69780;BME280;57052;55.602;38.096;2022-08-21T13:58:49;101001.56;;;27.90;22.02
69780;BME280;57052;55.602;38.096;2022-08-21T14:03:53;100984.91;;;27.94;22.37
69780;BME280;57052;55.602;38.096;2022-08-21T14:06:25;100977.44;;;27.98;22.55
69780;BME280;57052;55.602;38.096;2022-08-21T14:08:52;100980.75;;;27.84;22.32